< < Back
Terminal Aerodrome Forecast


Current Version              Previous Versions:   1  2  3  4  5  6  7  8  9  

Terminal Aerodrome Forecast

148
FTUS42 KGSP 041128
TAFAND
TAF
KAND 041128Z 0412/0512 26003KT P6SM FEW070
     FM041500 28008KT P6SM FEW250
     FM041800 27012G22KT P6SM FEW060
     FM050100 25008KT P6SM SCT015
     FM050500 26006KT P6SM SCT200=

Latest METAR

184
SAUS70 KWBC 041800 RRX
MTRAND
METAR KAND 041856Z AUTO 26008G15KT 10SM CLR 22/06 A2971 RMK AO2 SLP054
T02170056


USA.gov is the U.S. government's official web portal to all federal, state and local government web resources and services.